createdAt,value
2022-09-21T00:03:23.196Z,97929.84
2022-09-21T00:08:25.167Z,97936.53
2022-09-21T00:13:28.221Z,97935.63
2022-09-21T00:18:30.801Z,97930.91
2022-09-21T00:23:35.213Z,97919.16
2022-09-21T00:28:37.362Z,97927.78
2022-09-21T00:33:40.214Z,97924.38
2022-09-21T00:38:41.842Z,97922.16
2022-09-21T00:44:18.503Z,97933.88
2022-09-21T00:49:21.799Z,97932.44
2022-09-21T00:54:29.240Z,97927.94
2022-09-21T00:59:36.599Z,97928.38
2022-09-21T01:04:38.891Z,97926.78
2022-09-21T01:09:43.323Z,97935.78
2022-09-21T01:15:18.223Z,97936.38
2022-09-21T01:20:57.173Z,97937.28
2022-09-21T01:26:17.888Z,97941.31
2022-09-21T01:31:28.593Z,97938.47
2022-09-21T01:36:32.937Z,97929.28
2022-09-21T01:41:38.004Z,97933.63
2022-09-21T01:46:39.772Z,97932.16
2022-09-21T01:51:48.338Z,97942.19
2022-09-21T01:56:59.612Z,97928.81
2022-09-21T02:02:09.831Z,97939.75
2022-09-21T02:07:12.035Z,97940.91
2022-09-21T02:12:18.774Z,97939.66
2022-09-21T02:17:36.606Z,97946.75
2022-09-21T02:23:11.535Z,97939.13
2022-09-21T02:28:28.411Z,97941.63
2022-09-21T02:33:42.123Z,97949.38
2022-09-21T02:39:05.579Z,97950.44
2022-09-21T02:44:13.454Z,97956.59
2022-09-21T02:49:45.006Z,97960.75
2022-09-21T02:54:51.497Z,97960.44
2022-09-21T02:59:53.966Z,97943.78
2022-09-21T03:04:55.619Z,97949.69
2022-09-21T03:09:57.230Z,97939.13
2022-09-21T03:15:00.077Z,97941.09
2022-09-21T03:20:02.385Z,97950.03
2022-09-21T03:25:04.963Z,97941.00
2022-09-21T03:30:07.009Z,97940.50
2022-09-21T03:35:08.888Z,97945.63
2022-09-21T03:40:12.523Z,97948.34
2022-09-21T03:45:14.340Z,97949.41
2022-09-21T03:50:16.086Z,97951.47
2022-09-21T03:55:18.229Z,97949.38
2022-09-21T04:00:20.433Z,97951.06
2022-09-21T04:05:23.319Z,97960.53
2022-09-21T04:10:32.705Z,97964.00
2022-09-21T04:15:34.693Z,97968.47
2022-09-21T04:20:36.307Z,97973.72
2022-09-21T04:25:38.030Z,97982.31
2022-09-21T04:30:40.264Z,97986.91
2022-09-21T04:35:42.763Z,97989.78
2022-09-21T04:40:44.408Z,97989.00
2022-09-21T04:45:46.053Z,97995.53
2022-09-21T04:50:51.219Z,97998.66
2022-09-21T04:55:52.914Z,97994.00
2022-09-21T05:00:58.426Z,98011.19
2022-09-21T05:06:00.398Z,98014.63
2022-09-21T05:11:02.118Z,98021.72
2022-09-21T05:16:04.096Z,98023.78
2022-09-21T05:21:07.337Z,98026.91
2022-09-21T05:26:09.043Z,98030.06
2022-09-21T05:31:29.043Z,98026.78
2022-09-21T05:36:39.425Z,98034.28
2022-09-21T05:41:41.583Z,98031.91
2022-09-21T05:46:53.933Z,98040.81
2022-09-21T05:52:24.491Z,98037.47
2022-09-21T05:57:44.356Z,98038.28
2022-09-21T06:03:15.493Z,98038.28
2022-09-21T06:08:19.121Z,98043.25
2022-09-21T06:13:21.047Z,98044.25
2022-09-21T06:18:22.750Z,98051.38
2022-09-21T06:23:25.300Z,98046.22
2022-09-21T06:28:27.895Z,98049.88
2022-09-21T06:33:29.716Z,98042.78
2022-09-21T06:38:31.834Z,98041.19
2022-09-21T06:43:33.631Z,98050.28
2022-09-21T06:48:35.370Z,98052.53
2022-09-21T06:53:37.086Z,98058.91
2022-09-21T06:58:39.015Z,98060.09
2022-09-21T07:03:42.040Z,98059.13
2022-09-21T07:14:06.570Z,98062.56
2022-09-21T07:19:11.895Z,98065.09
2022-09-21T07:24:15.086Z,98068.72
2022-09-21T07:29:16.718Z,98071.72
2022-09-21T07:34:18.605Z,98063.41
2022-09-21T07:39:20.284Z,98064.59
2022-09-21T07:44:22.627Z,98071.84
2022-09-21T07:49:24.284Z,98073.31
2022-09-21T07:54:25.967Z,98075.69
2022-09-21T07:59:27.773Z,98079.66
2022-09-21T08:04:29.527Z,98080.50
2022-09-21T08:09:31.164Z,98077.81
2022-09-21T08:14:33.554Z,98075.81
2022-09-21T08:19:36.271Z,98075.91
2022-09-21T08:24:38.496Z,98072.38
2022-09-21T08:29:40.129Z,98069.50
2022-09-21T08:34:41.719Z,98073.88
2022-09-21T08:39:43.404Z,98079.00
2022-09-21T08:44:59.526Z,98078.59
2022-09-21T08:50:03.815Z,98069.16
2022-09-21T08:55:19.047Z,98072.47
2022-09-21T09:00:21.135Z,98073.03
2022-09-21T09:05:41.169Z,98070.03
2022-09-21T09:10:54.965Z,98061.25
2022-09-21T09:16:18.016Z,98069.97
2022-09-21T09:21:30.842Z,98056.75
2022-09-21T09:26:49.547Z,98056.16
2022-09-21T09:31:54.718Z,98057.69
2022-09-21T09:37:00.165Z,98047.63
2022-09-21T09:42:21.997Z,98043.47
2022-09-21T09:47:41.739Z,98042.50
2022-09-21T09:52:44.034Z,98040.88
2022-09-21T09:57:48.202Z,98040.81
2022-09-21T10:02:58.698Z,98031.50
2022-09-21T10:08:01.382Z,98017.13
2022-09-21T10:13:12.524Z,98019.78
2022-09-21T10:18:37.925Z,98019.78
2022-09-21T10:23:40.061Z,98012.69
2022-09-21T10:29:02.512Z,98019.16
2022-09-21T10:34:04.207Z,98001.25
2022-09-21T10:39:17.827Z,97999.09
2022-09-21T10:44:22.298Z,97993.09
2022-09-21T10:49:28.596Z,97993.44
2022-09-21T10:54:33.297Z,97989.00
2022-09-21T10:59:37.902Z,97986.78
2022-09-21T11:04:48.166Z,97990.91
2022-09-21T11:10:17.736Z,97983.75
2022-09-21T11:15:46.119Z,97984.91
2022-09-21T11:21:05.623Z,97982.94
2022-09-21T11:26:18.528Z,97982.69
2022-09-21T11:31:49.700Z,97978.28
2022-09-21T11:36:51.598Z,97974.66
2022-09-21T11:42:24.060Z,97968.34
2022-09-21T11:47:55.483Z,97972.22
2022-09-21T11:53:25.468Z,97968.34
2022-09-21T11:58:54.259Z,97954.78
2022-09-21T12:04:08.139Z,97947.84
2022-09-21T12:09:47.281Z,97950.81
2022-09-21T12:15:02.638Z,97946.09
2022-09-21T12:20:28.109Z,97943.09
2022-09-21T12:25:42.023Z,97941.94
2022-09-21T12:30:49.035Z,97939.16
2022-09-21T12:36:00.226Z,97937.38
2022-09-21T12:41:40.124Z,97930.31
2022-09-21T12:46:52.320Z,97924.84
2022-09-21T12:51:59.215Z,97927.53
2022-09-21T12:57:29.617Z,97928.63
2022-09-21T13:03:01.437Z,97919.75
2022-09-21T13:08:16.113Z,97930.31
2022-09-21T13:13:45.066Z,97912.66
2022-09-21T13:18:56.530Z,97920.41
2022-09-21T13:24:04.501Z,97911.25
2022-09-21T13:29:19.733Z,97901.63
2022-09-21T13:34:23.195Z,97905.22
2022-09-21T13:39:28.576Z,97901.09
2022-09-21T13:44:33.495Z,97898.19
2022-09-21T13:49:45.091Z,97888.38
2022-09-21T13:54:52.079Z,97889.06
2022-09-21T14:00:07.232Z,97892.16
2022-09-21T14:05:30.679Z,97889.69
2022-09-21T14:10:36.245Z,97883.84
2022-09-21T14:15:39.901Z,97873.53
2022-09-21T14:21:11.635Z,97880.56
2022-09-21T14:26:39.600Z,97869.41
2022-09-21T14:31:42.329Z,97879.63
2022-09-21T14:36:47.004Z,97876.84
2022-09-21T14:41:51.978Z,97877.56
2022-09-21T14:47:12.540Z,97873.59
2022-09-21T14:52:41.226Z,97861.31
2022-09-21T14:58:14.391Z,97868.00
2022-09-21T15:03:39.165Z,97871.31
2022-09-21T15:09:13.778Z,97855.41
2022-09-21T15:14:37.187Z,97864.94
2022-09-21T15:19:38.853Z,97859.03
2022-09-21T15:24:53.181Z,97847.47
2022-09-21T15:29:56.494Z,97854.97
2022-09-21T15:35:02.138Z,97845.63
2022-09-21T15:40:07.549Z,97837.16
2022-09-21T15:45:18.197Z,97840.47
2022-09-21T15:50:20.768Z,97841.53
2022-09-21T15:55:23.576Z,97838.75
2022-09-21T16:00:30.304Z,97842.13
2022-09-21T16:05:44.126Z,97854.31
2022-09-21T16:10:45.892Z,97846.94
2022-09-21T16:16:07.645Z,97850.00
2022-09-21T16:21:30.915Z,97853.94
2022-09-21T16:26:36.878Z,97852.91
2022-09-21T16:31:38.973Z,97846.56
2022-09-21T16:36:41.871Z,97845.25
2022-09-21T16:41:49.347Z,97854.47
2022-09-21T16:47:02.685Z,97847.06
2022-09-21T16:52:05.671Z,97850.41
2022-09-21T16:57:07.962Z,97860.88
2022-09-21T17:02:13.988Z,97862.66
2022-09-21T17:07:17.050Z,97857.31
2022-09-21T17:12:18.827Z,97871.34
2022-09-21T17:17:23.395Z,97873.69
2022-09-21T17:22:25.489Z,97870.06
2022-09-21T17:27:29.062Z,97879.31
2022-09-21T17:32:33.154Z,97876.25
2022-09-21T17:37:38.077Z,97885.50
2022-09-21T17:42:40.843Z,97876.06
2022-09-21T17:47:42.920Z,97873.41
2022-09-21T17:53:03.808Z,97883.78
2022-09-21T17:58:18.590Z,97887.25
2022-09-21T18:03:32.027Z,97894.78
2022-09-21T18:08:36.109Z,97897.91
2022-09-21T18:13:56.778Z,97892.00
2022-09-21T18:19:19.881Z,97899.09
2022-09-21T18:24:30.976Z,97902.94
2022-09-21T18:29:42.098Z,97901.38
2022-09-21T18:35:08.877Z,97907.69
2022-09-21T18:40:23.648Z,97913.50
2022-09-21T18:45:32.730Z,97911.81
2022-09-21T18:50:55.696Z,97913.34
2022-09-21T18:55:57.441Z,97914.41
2022-09-21T19:01:00.305Z,97916.72
2022-09-21T19:06:15.063Z,97914.81
2022-09-21T19:11:27.327Z,97921.03
2022-09-21T19:16:33.124Z,97921.94
2022-09-21T19:21:48.143Z,97916.78
2022-09-21T19:27:08.575Z,97907.44
2022-09-21T19:32:45.466Z,97909.38
2022-09-21T19:37:48.504Z,97913.13
2022-09-21T19:43:10.077Z,97913.16
2022-09-21T19:48:15.470Z,97910.31
2022-09-21T19:53:36.312Z,97915.06
2022-09-21T19:58:56.855Z,97914.13
2022-09-21T20:03:59.915Z,97914.72
2022-09-21T20:09:11.846Z,97919.31
2022-09-21T20:14:53.124Z,97907.78
2022-09-21T20:20:13.715Z,97917.22
2022-09-21T20:25:22.993Z,97913.88
2022-09-21T20:30:28.445Z,97912.91
2022-09-21T20:35:30.831Z,97915.78
2022-09-21T20:40:33.099Z,97915.53
2022-09-21T20:45:35.466Z,97919.44
2022-09-21T20:50:37.387Z,97919.44
2022-09-21T20:55:41.019Z,97918.38
2022-09-21T21:00:42.686Z,97917.44
2022-09-21T21:05:44.861Z,97928.47
2022-09-21T21:10:46.934Z,97925.75
2022-09-21T21:15:53.007Z,97934.63
2022-09-21T21:20:54.819Z,97925.25
2022-09-21T21:25:59.139Z,97927.78
2022-09-21T21:31:01.036Z,97922.66
2022-09-21T21:36:06.504Z,97925.94
2022-09-21T21:41:08.272Z,97920.69
2022-09-21T21:46:10.982Z,97925.88
2022-09-21T21:51:12.799Z,97916.19
2022-09-21T21:56:17.078Z,97927.09
2022-09-21T22:01:21.296Z,97921.47
2022-09-21T22:06:24.115Z,97922.66
2022-09-21T22:11:27.347Z,97916.66
2022-09-21T22:16:31.412Z,97917.28
2022-09-21T22:21:38.657Z,97916.09
2022-09-21T22:26:45.163Z,97916.34
2022-09-21T22:31:48.995Z,97912.31
2022-09-21T22:36:50.845Z,97903.56
2022-09-21T22:41:52.486Z,97904.81
2022-09-21T22:46:54.349Z,97909.22
2022-09-21T22:51:56.162Z,97911.06
2022-09-21T22:56:57.769Z,97905.44
2022-09-21T23:01:59.423Z,97912.53
2022-09-21T23:07:01.029Z,97904.59
2022-09-21T23:12:02.702Z,97897.59
2022-09-21T23:17:04.374Z,97892.31
2022-09-21T23:22:06.610Z,97894.09
2022-09-21T23:27:08.250Z,97885.94
2022-09-21T23:32:09.869Z,97889.66
2022-09-21T23:37:11.716Z,97888.56
2022-09-21T23:42:13.377Z,97893.00
2022-09-21T23:47:15.109Z,97892.31
2022-09-21T23:52:17.077Z,97889.97
2022-09-21T23:57:18.723Z,97888.47
